Time;durP1;ratioP1;P1;durP2;ratioP2;P2;SDS_P1;SDS_P2;PMS_P1;PMS_P2;Temp;Humidity;BMP_temperature;BMP_pressure;BME280_temperature;BME280_humidity;BME280_pressure;Samples;Min_cycle;Max_cycle;Signal;HPM_P1;HPM_P2
2021/07/19 00:01:46;;;;;;;5.78;2.67;;;;;;;;;;5000564;28;20104;-77
2021/07/19 00:04:12;;;;;;;5.10;2.28;;;;;;;;;;4986261;28;20439;-77
2021/07/19 00:06:39;;;;;;;5.10;2.28;;;;;;;;;;5006697;28;20073;-77
2021/07/19 00:09:05;;;;;;;5.45;2.20;;;;;;;;;;5002961;28;20069;-77
2021/07/19 00:11:32;;;;;;;5.32;2.30;;;;;;;;;;5006228;28;20045;-76
2021/07/19 00:13:58;;;;;;;5.70;2.17;;;;;;;;;;5003466;28;20061;-78
2021/07/19 00:16:25;;;;;;;6.80;2.20;;;;;;;;;;5001214;28;20065;-77
2021/07/19 00:18:51;;;;;;;8.60;2.40;;;;;;;;;;5005904;28;20077;-78
2021/07/19 00:21:17;;;;;;;5.60;2.28;;;;;;;;;;5006742;28;20053;-78
2021/07/19 00:23:44;;;;;;;5.25;2.20;;;;;;;;;;4997555;28;20076;-78
2021/07/19 00:26:10;;;;;;;5.53;2.35;;;;;;;;;;4991459;28;20057;-78
2021/07/19 00:28:37;;;;;;;4.35;2.20;;;;;;;;;;5003138;28;20064;-78
2021/07/19 00:31:03;;;;;;;6.68;2.10;;;;;;;;;;5002591;28;20058;-78
2021/07/19 00:33:30;;;;;;;6.70;2.20;;;;;;;;;;5009698;28;20065;-79
2021/07/19 00:35:56;;;;;;;5.40;2.50;;;;;;;;;;5004677;28;20524;-78
2021/07/19 00:38:22;;;;;;;5.50;2.80;;;;;;;;;;5007726;28;20147;-78
2021/07/19 00:40:49;;;;;;;4.38;2.28;;;;;;;;;;5004264;28;20057;-78
2021/07/19 00:43:15;;;;;;;5.90;2.10;;;;;;;;;;4997253;28;20071;-78
2021/07/19 00:45:42;;;;;;;7.05;3.08;;;;;;;;;;5004240;28;20458;-79
2021/07/19 00:48:08;;;;;;;7.35;2.20;;;;;;;;;;5000261;28;20124;-78
2021/07/19 00:50:36;;;;;;;6.45;2.40;;;;;;;;;;5010515;28;20469;-78
2021/07/19 00:53:07;;;;;;;5.00;2.13;;;;;;;;;;5007922;28;20088;-78
2021/07/19 00:55:41;;;;;;;6.68;2.17;;;;;;;;;;5002518;28;20077;-79
2021/07/19 00:58:08;;;;;;;6.40;2.00;;;;;;;;;;5006286;28;20065;-79
2021/07/19 01:00:36;;;;;;;5.15;2.00;;;;;;;;;;4997879;28;20501;-78
2021/07/19 01:03:04;;;;;;;4.90;2.13;;;;;;;;;;5009390;28;20061;-78
2021/07/19 01:05:31;;;;;;;5.85;2.17;;;;;;;;;;5001439;28;20061;-78
2021/07/19 01:07:57;;;;;;;3.40;1.77;;;;;;;;;;5002474;28;20662;-78
2021/07/19 01:10:24;;;;;;;6.65;2.22;;;;;;;;;;5007133;28;20069;-78
2021/07/19 01:12:52;;;;;;;5.93;2.17;;;;;;;;;;5000580;28;20061;-78
2021/07/19 01:15:20;;;;;;;5.00;2.10;;;;;;;;;;5012334;28;20066;-78
2021/07/19 01:17:46;;;;;;;5.60;2.20;;;;;;;;;;4987046;28;20084;-78
2021/07/19 01:20:13;;;;;;;4.45;2.10;;;;;;;;;;4998557;28;20089;-78
2021/07/19 01:22:56;;;;;;;5.50;2.28;;;;;;;;;;5001076;28;20120;-78
2021/07/19 01:25:41;;;;;;;5.38;1.90;;;;;;;;;;4989250;28;20517;-78
2021/07/19 01:28:08;;;;;;;6.25;2.08;;;;;;;;;;5002534;28;20285;-78
2021/07/19 01:30:36;;;;;;;4.75;2.10;;;;;;;;;;4990994;28;20072;-77
2021/07/19 01:33:03;;;;;;;5.05;2.20;;;;;;;;;;4999658;28;20062;-77
2021/07/19 01:35:33;;;;;;;8.38;2.35;;;;;;;;;;5005677;28;20065;-77
2021/07/19 01:38:01;;;;;;;7.55;1.92;;;;;;;;;;4980909;28;20061;-76
2021/07/19 01:40:27;;;;;;;7.32;2.10;;;;;;;;;;5001698;28;20116;-76
2021/07/19 01:42:55;;;;;;;5.38;2.55;;;;;;;;;;5005035;28;20095;-76
2021/07/19 01:45:21;;;;;;;6.03;1.85;;;;;;;;;;5008409;28;20504;-76
2021/07/19 01:47:48;;;;;;;5.93;2.00;;;;;;;;;;5006486;28;20061;-76
2021/07/19 01:50:15;;;;;;;5.45;2.15;;;;;;;;;;4999595;28;20038;-76
2021/07/19 01:52:42;;;;;;;4.63;2.10;;;;;;;;;;5003468;28;20062;-77
2021/07/19 01:55:09;;;;;;;5.45;2.28;;;;;;;;;;4989101;28;20084;-76
2021/07/19 01:57:36;;;;;;;5.35;2.17;;;;;;;;;;5004058;28;20065;-77
2021/07/19 02:00:04;;;;;;;7.95;2.33;;;;;;;;;;5003361;28;20115;-78
2021/07/19 02:02:31;;;;;;;4.63;2.03;;;;;;;;;;5008031;28;20072;-76
2021/07/19 02:04:57;;;;;;;6.88;2.47;;;;;;;;;;4994985;28;20115;-77
2021/07/19 02:07:25;;;;;;;5.93;2.28;;;;;;;;;;5003939;28;20202;-77
2021/07/19 02:09:53;;;;;;;5.78;2.20;;;;;;;;;;5001221;28;20062;-76
2021/07/19 02:12:19;;;;;;;7.97;2.25;;;;;;;;;;5000394;28;20058;-77
2021/07/19 02:14:46;;;;;;;4.72;2.00;;;;;;;;;;4998372;28;20061;-77
2021/07/19 02:17:13;;;;;;;7.25;2.22;;;;;;;;;;5003032;28;20080;-77
2021/07/19 02:19:40;;;;;;;10.85;2.65;;;;;;;;;;5002237;28;20077;-77
2021/07/19 02:22:07;;;;;;;5.00;2.25;;;;;;;;;;5008945;28;20057;-77
2021/07/19 02:24:34;;;;;;;7.32;2.30;;;;;;;;;;5004671;28;20531;-78
2021/07/19 02:27:01;;;;;;;6.03;2.28;;;;;;;;;;4987053;28;20090;-77
2021/07/19 02:29:27;;;;;;;6.88;2.50;;;;;;;;;;5005410;28;20062;-77
2021/07/19 02:31:54;;;;;;;6.20;2.67;;;;;;;;;;4993975;28;20065;-77
2021/07/19 02:34:21;;;;;;;5.72;1.90;;;;;;;;;;5001761;28;20069;-78
2021/07/19 02:36:50;;;;;;;7.50;2.65;;;;;;;;;;4999822;28;20065;-77
2021/07/19 02:39:18;;;;;;;7.22;2.28;;;;;;;;;;5007537;28;20112;-78
2021/07/19 02:41:45;;;;;;;5.28;2.00;;;;;;;;;;4995622;28;20057;-77
2021/07/19 02:44:12;;;;;;;6.00;2.30;;;;;;;;;;4994819;28;20034;-77
2021/07/19 02:46:40;;;;;;;7.22;2.40;;;;;;;;;;4999830;28;20036;-78
2021/07/19 02:49:10;;;;;;;7.53;2.58;;;;;;;;;;4996917;28;20058;-77
2021/07/19 02:51:37;;;;;;;5.77;2.40;;;;;;;;;;4984712;28;20065;-78
2021/07/19 02:54:04;;;;;;;5.57;2.70;;;;;;;;;;5006597;28;20471;-78
2021/07/19 02:56:34;;;;;;;5.15;2.03;;;;;;;;;;5000692;28;20065;-78
2021/07/19 02:59:00;;;;;;;7.35;2.38;;;;;;;;;;5005914;28;22176;-78
2021/07/19 03:01:27;;;;;;;6.47;2.00;;;;;;;;;;5015167;28;20111;-78
2021/07/19 03:03:56;;;;;;;5.18;2.00;;;;;;;;;;4998170;28;20510;-77
2021/07/19 03:06:25;;;;;;;6.20;2.13;;;;;;;;;;5003024;28;20066;-77
2021/07/19 03:08:53;;;;;;;7.93;2.65;;;;;;;;;;4994834;28;20502;-76
2021/07/19 03:11:38;;;;;;;5.00;2.03;;;;;;;;;;5006078;28;20088;-77
2021/07/19 03:14:07;;;;;;;6.55;2.22;;;;;;;;;;5000522;28;20175;-77
2021/07/19 03:16:33;;;;;;;7.60;2.28;;;;;;;;;;5001489;28;20077;-78
2021/07/19 03:19:01;;;;;;;7.35;2.13;;;;;;;;;;5012108;28;20070;-78
2021/07/19 03:21:29;;;;;;;4.25;2.13;;;;;;;;;;4994967;28;20104;-77
2021/07/19 03:23:57;;;;;;;5.40;2.20;;;;;;;;;;5004032;28;20746;-77
2021/07/19 03:26:23;;;;;;;7.07;2.67;;;;;;;;;;4997058;28;20682;-76
2021/07/19 03:28:50;;;;;;;9.70;2.60;;;;;;;;;;4999759;28;20061;-78
2021/07/19 03:31:20;;;;;;;5.95;2.83;;;;;;;;;;4983670;28;20088;-78
2021/07/19 03:33:46;;;;;;;6.70;2.17;;;;;;;;;;4995018;28;20598;-78
2021/07/19 03:36:14;;;;;;;4.38;2.10;;;;;;;;;;4997188;28;20062;-78
2021/07/19 03:38:43;;;;;;;7.10;2.10;;;;;;;;;;4991756;28;20070;-78
2021/07/19 03:41:11;;;;;;;4.80;1.65;;;;;;;;;;5002073;28;20053;-78
2021/07/19 03:43:38;;;;;;;6.25;1.98;;;;;;;;;;4999451;28;20108;-78
2021/07/19 03:46:04;;;;;;;7.38;2.20;;;;;;;;;;4997512;28;20490;-78
2021/07/19 03:48:31;;;;;;;5.82;2.10;;;;;;;;;;4993417;28;20646;-77
2021/07/19 03:50:58;;;;;;;5.70;2.17;;;;;;;;;;5000836;28;20065;-78
2021/07/19 03:53:25;;;;;;;6.13;2.22;;;;;;;;;;4984880;28;20093;-78
2021/07/19 03:55:52;;;;;;;6.82;1.70;;;;;;;;;;4999634;28;20054;-78
2021/07/19 03:58:19;;;;;;;5.65;1.90;;;;;;;;;;5009576;28;20682;-78
2021/07/19 04:00:45;;;;;;;5.20;2.10;;;;;;;;;;5000756;28;20070;-78
2021/07/19 04:03:43;;;;;;;7.13;2.30;;;;;;;;;;5004011;28;20382;-78
2021/07/19 04:06:02;;;;;;;7.55;2.03;;;;;;;;;;4996550;28;20057;-78
2021/07/19 04:08:32;;;;;;;6.47;2.40;;;;;;;;;;5001974;28;20100;-78
2021/07/19 04:11:02;;;;;;;11.15;2.35;;;;;;;;;;5003115;28;20352;-78
2021/07/19 04:13:30;;;;;;;4.72;1.80;;;;;;;;;;5011087;28;20072;-78
2021/07/19 04:15:58;;;;;;;7.00;2.40;;;;;;;;;;4995046;28;20682;-78
2021/07/19 04:18:24;;;;;;;5.18;2.28;;;;;;;;;;5000862;28;20477;-78
2021/07/19 04:20:51;;;;;;;5.95;2.30;;;;;;;;;;5003454;28;20073;-78
2021/07/19 04:23:18;;;;;;;5.57;2.00;;;;;;;;;;4998509;28;20066;-78
2021/07/19 04:25:49;;;;;;;7.97;2.38;;;;;;;;;;5013967;28;20061;-78
2021/07/19 04:28:18;;;;;;;7.25;2.28;;;;;;;;;;4995136;28;20062;-78
2021/07/19 04:30:48;;;;;;;5.97;2.20;;;;;;;;;;4987740;28;20079;-78
2021/07/19 04:33:18;;;;;;;6.43;2.20;;;;;;;;;;4995876;28;20109;-78
2021/07/19 04:35:46;;;;;;;8.77;2.30;;;;;;;;;;4997028;28;20065;-78
2021/07/19 04:38:14;;;;;;;5.60;2.30;;;;;;;;;;4988119;28;20724;-78
2021/07/19 04:40:41;;;;;;;8.10;2.50;;;;;;;;;;4992040;28;20069;-78
2021/07/19 04:43:07;;;;;;;6.63;2.00;;;;;;;;;;4994840;28;20113;-78
2021/07/19 04:45:33;;;;;;;5.93;2.15;;;;;;;;;;4997552;28;20061;-79
2021/07/19 04:48:00;;;;;;;6.80;2.20;;;;;;;;;;4995931;28;20046;-78
2021/07/19 04:50:26;;;;;;;7.07;1.98;;;;;;;;;;4996887;28;20117;-78
2021/07/19 04:52:53;;;;;;;6.45;2.30;;;;;;;;;;5000471;28;20061;-81
2021/07/19 04:55:21;;;;;;;4.88;2.20;;;;;;;;;;5002257;28;20064;-81
2021/07/19 04:57:49;;;;;;;5.90;1.92;;;;;;;;;;4994192;28;20050;-82
2021/07/19 05:00:16;;;;;;;3.63;1.80;;;;;;;;;;5012679;28;20057;-82
2021/07/19 05:02:43;;;;;;;5.07;1.83;;;;;;;;;;5005598;28;20769;-77
2021/07/19 05:05:11;;;;;;;5.57;1.85;;;;;;;;;;5005453;28;20527;-74
2021/07/19 05:07:39;;;;;;;6.22;1.70;;;;;;;;;;5004936;28;20675;-77
2021/07/19 05:10:08;;;;;;;3.55;1.73;;;;;;;;;;4999268;28;20128;-76
2021/07/19 05:12:35;;;;;;;7.18;2.30;;;;;;;;;;5003536;28;20139;-77
2021/07/19 05:15:01;;;;;;;4.55;1.60;;;;;;;;;;5003051;28;20956;-77
2021/07/19 05:17:28;;;;;;;4.97;1.50;;;;;;;;;;5004451;28;20081;-77
2021/07/19 05:19:55;;;;;;;5.70;1.77;;;;;;;;;;5001345;28;20069;-77
2021/07/19 05:22:22;;;;;;;4.30;1.35;;;;;;;;;;5005863;28;20061;-77
2021/07/19 05:24:48;;;;;;;4.30;1.67;;;;;;;;;;5005159;28;20061;-77
2021/07/19 05:27:15;;;;;;;4.43;1.73;;;;;;;;;;5003476;28;20077;-77
2021/07/19 05:29:42;;;;;;;4.32;1.80;;;;;;;;;;5002296;28;20070;-79
2021/07/19 05:32:09;;;;;;;4.68;1.60;;;;;;;;;;4978222;28;20742;-80
2021/07/19 05:34:37;;;;;;;4.20;1.55;;;;;;;;;;4987837;28;20567;-77
2021/07/19 05:37:04;;;;;;;8.20;2.00;;;;;;;;;;5001198;28;20108;-80
2021/07/19 05:39:30;;;;;;;7.00;1.63;;;;;;;;;;5004765;28;20065;-84
2021/07/19 05:41:56;;;;;;;4.88;1.70;;;;;;;;;;5001675;28;20062;-81
2021/07/19 05:44:23;;;;;;;4.45;1.60;;;;;;;;;;5003729;28;20061;-82
2021/07/19 05:46:49;;;;;;;3.97;1.90;;;;;;;;;;5004284;28;20073;-80
2021/07/19 05:49:17;;;;;;;4.75;1.45;;;;;;;;;;5006174;28;20061;-86
2021/07/19 05:51:43;;;;;;;5.10;1.52;;;;;;;;;;5001360;28;20057;-86
2021/07/19 05:54:10;;;;;;;5.25;1.73;;;;;;;;;;5005956;28;20041;-84
2021/07/19 05:56:36;;;;;;;4.72;1.90;;;;;;;;;;5004366;28;20050;-84
2021/07/19 05:59:03;;;;;;;5.85;1.42;;;;;;;;;;5007719;28;20068;-84
2021/07/19 06:01:29;;;;;;;3.85;1.92;;;;;;;;;;5007909;28;20061;-81
2021/07/19 06:03:56;;;;;;;3.83;1.50;;;;;;;;;;5006042;28;20058;-81
2021/07/19 06:06:22;;;;;;;5.47;1.98;;;;;;;;;;5003342;28;20468;-81
2021/07/19 06:08:49;;;;;;;5.13;1.80;;;;;;;;;;5003216;28;20066;-81
2021/07/19 06:11:15;;;;;;;4.35;1.70;;;;;;;;;;5007319;28;20072;-82
2021/07/19 06:13:42;;;;;;;3.70;1.40;;;;;;;;;;5010287;28;20061;-83
2021/07/19 06:16:09;;;;;;;3.67;1.42;;;;;;;;;;5002298;28;20054;-79
2021/07/19 06:18:36;;;;;;;4.85;1.70;;;;;;;;;;5002991;28;20507;-79
2021/07/19 06:21:03;;;;;;;4.70;1.77;;;;;;;;;;5004438;28;20145;-79
2021/07/19 06:23:29;;;;;;;13.00;2.08;;;;;;;;;;5008033;28;20070;-79
2021/07/19 06:25:55;;;;;;;4.40;1.83;;;;;;;;;;5002763;28;20705;-78
2021/07/19 06:28:22;;;;;;;5.72;1.88;;;;;;;;;;5007679;28;20069;-78
2021/07/19 06:30:51;;;;;;;2.78;1.40;;;;;;;;;;5006348;28;20054;-78
2021/07/19 06:33:17;;;;;;;4.95;1.52;;;;;;;;;;5006737;28;20062;-75
2021/07/19 06:35:43;;;;;;;5.95;2.00;;;;;;;;;;5004197;28;21561;-72
2021/07/19 06:38:10;;;;;;;9.32;1.88;;;;;;;;;;5012367;28;20405;-74
2021/07/19 06:40:36;;;;;;;7.32;1.63;;;;;;;;;;5002817;28;20058;-79
2021/07/19 06:43:03;;;;;;;5.80;1.70;;;;;;;;;;5005473;28;20426;-76
2021/07/19 06:45:29;;;;;;;4.85;1.75;;;;;;;;;;5007287;28;20560;-77
2021/07/19 06:47:55;;;;;;;5.45;2.05;;;;;;;;;;5004648;28;20085;-76
2021/07/19 06:50:22;;;;;;;5.35;1.85;;;;;;;;;;5005038;28;20061;-76
2021/07/19 06:52:48;;;;;;;5.07;1.80;;;;;;;;;;5003101;28;20695;-77
2021/07/19 06:55:15;;;;;;;4.15;1.58;;;;;;;;;;5003064;28;20147;-76
2021/07/19 06:57:41;;;;;;;3.47;1.50;;;;;;;;;;5006605;28;20087;-76
2021/07/19 07:00:10;;;;;;;5.75;2.13;;;;;;;;;;5012293;28;20058;-76
2021/07/19 07:02:36;;;;;;;5.00;1.88;;;;;;;;;;5012401;28;20049;-76
2021/07/19 07:05:03;;;;;;;6.28;2.30;;;;;;;;;;5001633;28;20041;-76
2021/07/19 07:07:30;;;;;;;7.30;2.05;;;;;;;;;;5005190;28;20077;-75
2021/07/19 07:09:56;;;;;;;4.43;1.95;;;;;;;;;;5005366;28;20045;-76
2021/07/19 07:12:22;;;;;;;6.70;2.33;;;;;;;;;;5014067;28;20129;-76
2021/07/19 07:14:49;;;;;;;6.40;2.28;;;;;;;;;;5006997;28;20057;-76
2021/07/19 07:17:16;;;;;;;5.55;1.80;;;;;;;;;;5006056;28;20046;-75
2021/07/19 07:19:42;;;;;;;6.60;1.73;;;;;;;;;;4974480;28;20131;-76
2021/07/19 07:22:09;;;;;;;4.07;1.75;;;;;;;;;;5017382;28;20525;-75
2021/07/19 07:24:40;;;;;;;4.85;1.65;;;;;;;;;;4988898;28;20041;-76
2021/07/19 07:27:08;;;;;;;4.38;1.35;;;;;;;;;;4995157;28;20068;-75
2021/07/19 07:29:34;;;;;;;6.30;1.73;;;;;;;;;;5010060;28;20065;-77
2021/07/19 07:32:00;;;;;;;3.08;1.58;;;;;;;;;;4990867;28;20048;-76
2021/07/19 07:34:27;;;;;;;2.97;1.30;;;;;;;;;;5000773;28;20553;-76
2021/07/19 07:36:53;;;;;;;4.32;1.63;;;;;;;;;;4995677;28;20058;-78
2021/07/19 07:39:19;;;;;;;2.80;1.30;;;;;;;;;;5011166;28;20145;-76
2021/07/19 07:41:46;;;;;;;4.18;1.80;;;;;;;;;;4990509;28;20065;-76
2021/07/19 07:44:12;;;;;;;4.70;1.92;;;;;;;;;;5006905;28;20492;-76
2021/07/19 07:46:41;;;;;;;4.10;1.95;;;;;;;;;;5004379;28;20450;-75
2021/07/19 07:49:08;;;;;;;4.85;1.77;;;;;;;;;;5004521;28;20068;-75
2021/07/19 07:51:34;;;;;;;4.60;1.63;;;;;;;;;;5007852;28;20123;-77
2021/07/19 07:54:00;;;;;;;3.97;1.80;;;;;;;;;;5005131;28;20034;-76
2021/07/19 07:56:27;;;;;;;3.72;1.70;;;;;;;;;;5006214;28;20053;-76
2021/07/19 07:58:54;;;;;;;4.88;1.75;;;;;;;;;;5003742;28;20132;-74
2021/07/19 08:01:20;;;;;;;6.82;2.00;;;;;;;;;;5005539;28;20567;-74
2021/07/19 08:03:47;;;;;;;2.88;1.65;;;;;;;;;;5008670;28;20073;-78
2021/07/19 08:06:13;;;;;;;5.40;2.05;;;;;;;;;;5004623;28;20054;-78
2021/07/19 08:08:40;;;;;;;4.55;2.00;;;;;;;;;;5003672;28;20120;-77
2021/07/19 08:11:07;;;;;;;3.70;1.63;;;;;;;;;;5012930;28;20053;-77
2021/07/19 08:13:33;;;;;;;3.75;1.65;;;;;;;;;;4990050;28;20397;-77
2021/07/19 08:15:59;;;;;;;6.55;1.83;;;;;;;;;;5007036;28;20335;-77
2021/07/19 08:18:26;;;;;;;3.78;1.58;;;;;;;;;;5005167;28;20061;-77
2021/07/19 08:20:52;;;;;;;6.47;1.70;;;;;;;;;;4996136;28;20062;-76
2021/07/19 08:23:19;;;;;;;4.50;2.10;;;;;;;;;;4994762;28;20057;-76
2021/07/19 08:25:45;;;;;;;11.00;2.20;;;;;;;;;;5006168;28;20061;-77
2021/07/19 08:28:13;;;;;;;4.13;1.88;;;;;;;;;;5007394;28;20030;-77
2021/07/19 08:30:40;;;;;;;4.07;1.73;;;;;;;;;;5007789;28;20445;-77
2021/07/19 08:33:06;;;;;;;8.48;2.17;;;;;;;;;;4999986;28;20138;-77
2021/07/19 08:35:32;;;;;;;5.22;2.08;;;;;;;;;;5005438;28;20073;-77
2021/07/19 08:38:00;;;;;;;4.88;1.92;;;;;;;;;;5003302;28;20104;-77
2021/07/19 08:40:27;;;;;;;6.50;1.80;;;;;;;;;;5007622;28;20569;-76
2021/07/19 08:42:55;;;;;;;4.65;2.05;;;;;;;;;;5008745;28;20079;-77
2021/07/19 08:45:22;;;;;;;4.20;1.83;;;;;;;;;;5000853;28;20066;-76
2021/07/19 08:47:49;;;;;;;4.60;2.00;;;;;;;;;;4998456;28;20062;-77
2021/07/19 08:50:16;;;;;;;7.40;2.40;;;;;;;;;;5007709;28;20541;-77
2021/07/19 08:52:46;;;;;;;5.57;1.98;;;;;;;;;;5010824;28;20038;-78
2021/07/19 08:55:12;;;;;;;4.13;1.73;;;;;;;;;;5018453;28;20512;-77
2021/07/19 08:57:43;;;;;;;6.22;2.13;;;;;;;;;;5007610;28;20034;-77
2021/07/19 09:00:10;;;;;;;5.68;1.98;;;;;;;;;;5006292;28;20057;-77
2021/07/19 09:02:37;;;;;;;3.85;2.20;;;;;;;;;;4994944;28;20085;-77
2021/07/19 09:05:04;;;;;;;4.70;2.03;;;;;;;;;;5006840;28;20418;-77
2021/07/19 09:07:31;;;;;;;6.35;2.40;;;;;;;;;;5012176;28;20042;-77
2021/07/19 09:09:59;;;;;;;5.78;2.00;;;;;;;;;;5018888;28;20342;-77
2021/07/19 09:12:31;;;;;;;6.20;2.22;;;;;;;;;;5033487;28;20057;-77
2021/07/19 09:14:58;;;;;;;4.88;2.25;;;;;;;;;;5034858;28;20120;-77
2021/07/19 09:17:25;;;;;;;3.50;2.05;;;;;;;;;;5025257;28;20026;-77
2021/07/19 09:19:52;;;;;;;6.40;2.00;;;;;;;;;;5027235;28;20042;-77
2021/07/19 09:22:26;;;;;;;3.80;1.77;;;;;;;;;;5018212;28;20022;-76
2021/07/19 09:24:52;;;;;;;4.15;1.85;;;;;;;;;;5012473;28;20127;-78
2021/07/19 09:27:20;;;;;;;4.38;2.08;;;;;;;;;;4988676;28;20166;-78
2021/07/19 09:29:47;;;;;;;3.97;1.67;;;;;;;;;;5005675;28;20061;-77
2021/07/19 09:32:14;;;;;;;7.75;2.72;;;;;;;;;;4998243;28;20533;-77
2021/07/19 09:34:41;;;;;;;5.85;2.08;;;;;;;;;;4999873;28;20066;-77
2021/07/19 09:37:12;;;;;;;3.72;2.20;;;;;;;;;;5019376;28;20072;-77
2021/07/19 09:39:41;;;;;;;4.28;2.30;;;;;;;;;;5015681;28;20069;-78
2021/07/19 09:42:09;;;;;;;5.50;1.98;;;;;;;;;;5010741;28;20058;-77
2021/07/19 09:44:36;;;;;;;5.82;1.88;;;;;;;;;;5008286;28;20053;-77
2021/07/19 09:47:03;;;;;;;3.60;1.70;;;;;;;;;;5017626;28;20053;-77
2021/07/19 09:49:31;;;;;;;4.50;1.95;;;;;;;;;;5009118;28;20069;-77
2021/07/19 09:51:59;;;;;;;4.03;2.03;;;;;;;;;;5006618;28;20553;-77
2021/07/19 09:54:32;;;;;;;5.80;2.15;;;;;;;;;;5008465;28;20069;-77
2021/07/19 09:57:00;;;;;;;5.07;2.17;;;;;;;;;;5007139;28;20050;-78
2021/07/19 09:59:27;;;;;;;4.18;1.80;;;;;;;;;;4999500;28;20074;-77
2021/07/19 10:01:53;;;;;;;4.50;2.00;;;;;;;;;;4999404;28;20058;-78
2021/07/19 10:04:21;;;;;;;2.92;1.95;;;;;;;;;;5018466;28;20108;-77
2021/07/19 10:06:51;;;;;;;4.93;2.30;;;;;;;;;;4999533;28;20509;-77
2021/07/19 10:09:18;;;;;;;6.00;2.35;;;;;;;;;;4991655;28;20069;-77
2021/07/19 10:11:49;;;;;;;5.82;1.95;;;;;;;;;;5002160;28;20516;-77
2021/07/19 10:14:27;;;;;;;5.72;2.67;;;;;;;;;;4988612;28;20034;-77
2021/07/19 10:16:54;;;;;;;3.63;2.17;;;;;;;;;;4989819;28;20057;-77
2021/07/19 10:19:21;;;;;;;3.80;1.92;;;;;;;;;;5009733;28;20045;-76
2021/07/19 10:21:48;;;;;;;5.00;2.33;;;;;;;;;;5007703;28;20104;-76
2021/07/19 10:24:19;;;;;;;4.30;2.38;;;;;;;;;;5000628;28;20036;-77
2021/07/19 10:26:46;;;;;;;5.88;2.22;;;;;;;;;;4995802;28;20066;-76
2021/07/19 10:29:13;;;;;;;5.45;2.13;;;;;;;;;;4989713;28;20108;-77
2021/07/19 10:31:39;;;;;;;5.13;2.33;;;;;;;;;;4989347;28;20513;-74
2021/07/19 10:34:06;;;;;;;5.25;2.40;;;;;;;;;;4987402;28;20057;-77
2021/07/19 10:36:34;;;;;;;4.47;2.58;;;;;;;;;;5010380;28;20057;-77
2021/07/19 10:39:12;;;;;;;5.22;3.03;;;;;;;;;;5007735;28;22210;-76
2021/07/19 10:41:39;;;;;;;3.65;2.20;;;;;;;;;;5010635;28;20660;-77
2021/07/19 10:44:09;;;;;;;6.35;3.00;;;;;;;;;;5005522;28;20085;-77
2021/07/19 10:46:36;;;;;;;5.88;2.70;;;;;;;;;;5003550;28;20488;-77
2021/07/19 10:49:10;;;;;;;5.15;2.85;;;;;;;;;;5012523;28;20125;-77
2021/07/19 10:51:54;;;;;;;5.60;2.35;;;;;;;;;;5012672;28;20123;-77
2021/07/19 10:54:23;;;;;;;5.95;2.47;;;;;;;;;;5016226;28;20056;-76
2021/07/19 10:56:51;;;;;;;3.83;2.20;;;;;;;;;;5004009;28;20124;-78
2021/07/19 10:59:24;;;;;;;4.90;2.35;;;;;;;;;;5002465;28;20026;-76
2021/07/19 11:01:52;;;;;;;5.43;2.45;;;;;;;;;;5004462;28;20131;-76
2021/07/19 11:04:18;;;;;;;5.95;2.60;;;;;;;;;;5005510;28;20112;-76
2021/07/19 11:06:49;;;;;;;3.72;2.10;;;;;;;;;;5000412;28;20411;-77
2021/07/19 11:09:16;;;;;;;5.63;2.50;;;;;;;;;;4992656;28;20184;-77
2021/07/19 11:11:43;;;;;;;3.90;2.58;;;;;;;;;;5007801;28;20593;-77
2021/07/19 11:14:16;;;;;;;5.15;2.33;;;;;;;;;;5006024;28;20108;-76
2021/07/19 11:17:05;;;;;;;5.85;2.75;;;;;;;;;;5003462;28;20057;-77
2021/07/19 11:19:36;;;;;;;5.95;2.45;;;;;;;;;;4998984;28;20740;-76
2021/07/19 11:22:13;;;;;;;3.58;2.30;;;;;;;;;;5005366;28;20116;-76
2021/07/19 11:24:44;;;;;;;5.40;2.78;;;;;;;;;;5006810;28;20069;-76
2021/07/19 11:27:10;;;;;;;;;;;;;;;;;;5011556;28;20057;-77
2021/07/19 11:29:41;;;;;;;4.60;2.53;;;;;;;;;;4988750;28;19952;-77
2021/07/19 11:32:10;;;;;;;4.57;2.40;;;;;;;;;;5005580;28;20065;-74
2021/07/19 11:34:38;;;;;;;5.65;2.63;;;;;;;;;;5004431;28;20058;-77
2021/07/19 11:37:04;;;;;;;4.88;2.50;;;;;;;;;;5014108;28;20068;-77
2021/07/19 11:39:41;;;;;;;4.82;2.15;;;;;;;;;;5004449;28;20058;-76
2021/07/19 11:42:08;;;;;;;5.03;2.33;;;;;;;;;;5007492;28;21301;-78
2021/07/19 11:44:34;;;;;;;4.35;2.28;;;;;;;;;;4996384;28;20061;-77
2021/07/19 11:47:05;;;;;;;4.82;2.20;;;;;;;;;;5014265;28;20467;-77
2021/07/19 11:49:32;;;;;;;4.28;2.33;;;;;;;;;;4996848;28;20065;-74
2021/07/19 11:51:59;;;;;;;4.28;2.35;;;;;;;;;;5010011;28;20061;-76
2021/07/19 11:54:25;;;;;;;3.65;2.15;;;;;;;;;;5009506;28;20069;-78
2021/07/19 11:56:53;;;;;;;4.20;2.28;;;;;;;;;;4999596;28;20501;-76
2021/07/19 11:59:20;;;;;;;5.28;2.67;;;;;;;;;;5006553;28;20769;-78
2021/07/19 12:01:54;;;;;;;4.68;2.08;;;;;;;;;;5011068;28;20058;-77
2021/07/19 12:04:22;;;;;;;4.25;2.47;;;;;;;;;;5013750;28;20057;-77
2021/07/19 12:06:52;;;;;;;5.57;2.67;;;;;;;;;;4997911;28;20070;-77
2021/07/19 12:09:20;;;;;;;8.13;3.00;;;;;;;;;;5010619;28;20057;-76
2021/07/19 12:11:53;;;;;;;5.63;2.40;;;;;;;;;;5009304;28;20054;-76
2021/07/19 12:14:20;;;;;;;4.80;2.40;;;;;;;;;;5013639;28;20053;-77
2021/07/19 12:16:46;;;;;;;7.85;2.30;;;;;;;;;;5007456;28;20062;-76
2021/07/19 12:19:17;;;;;;;6.13;2.70;;;;;;;;;;5009431;28;20107;-73
2021/07/19 12:21:48;;;;;;;4.60;2.50;;;;;;;;;;5007190;28;20081;-74
2021/07/19 12:24:15;;;;;;;5.50;2.45;;;;;;;;;;5007565;28;20050;-76
2021/07/19 12:26:46;;;;;;;3.92;1.95;;;;;;;;;;5005602;28;20057;-77
2021/07/19 12:29:15;;;;;;;6.15;2.58;;;;;;;;;;5009064;28;20060;-77
2021/07/19 12:31:48;;;;;;;4.47;2.13;;;;;;;;;;5014959;28;20834;-77
2021/07/19 12:34:16;;;;;;;5.45;2.80;;;;;;;;;;5008875;28;20130;-77
2021/07/19 12:36:46;;;;;;;4.78;2.65;;;;;;;;;;5005206;28;20174;-77
2021/07/19 12:39:14;;;;;;;5.60;2.47;;;;;;;;;;5007455;28;20563;-77
2021/07/19 12:41:41;;;;;;;8.15;2.50;;;;;;;;;;5001129;28;20115;-77
2021/07/19 12:44:08;;;;;;;4.40;2.17;;;;;;;;;;5013409;28;20733;-77
2021/07/19 12:46:42;;;;;;;5.65;2.10;;;;;;;;;;5012258;28;20054;-77
2021/07/19 12:49:08;;;;;;;6.82;2.90;;;;;;;;;;5009030;28;20531;-77
2021/07/19 12:51:35;;;;;;;4.22;2.55;;;;;;;;;;5008819;28;20127;-76
2021/07/19 12:54:06;;;;;;;5.35;2.38;;;;;;;;;;5008618;28;20306;-76
2021/07/19 12:56:34;;;;;;;3.15;2.03;;;;;;;;;;5013647;28;20478;-76
2021/07/19 12:59:01;;;;;;;4.45;2.15;;;;;;;;;;5013171;28;20100;-76
2021/07/19 13:01:31;;;;;;;3.40;2.10;;;;;;;;;;5012991;28;20061;-75
2021/07/19 13:04:01;;;;;;;6.43;2.83;;;;;;;;;;4997123;28;20058;-73
2021/07/19 13:06:28;;;;;;;4.57;2.53;;;;;;;;;;5007611;28;20123;-77
2021/07/19 13:08:54;;;;;;;4.93;2.50;;;;;;;;;;5015658;28;20073;-76
2021/07/19 13:11:20;;;;;;;3.67;2.05;;;;;;;;;;5006367;28;20065;-76
2021/07/19 13:13:47;;;;;;;4.15;2.20;;;;;;;;;;5014106;28;20054;-76
2021/07/19 13:16:21;;;;;;;4.57;2.28;;;;;;;;;;5008699;28;20525;-76
2021/07/19 13:18:55;;;;;;;5.53;2.35;;;;;;;;;;5009128;28;20501;-77
2021/07/19 13:21:22;;;;;;;3.67;2.20;;;;;;;;;;5008381;28;20066;-77
2021/07/19 13:23:48;;;;;;;4.43;2.42;;;;;;;;;;4999380;28;20054;-77
2021/07/19 13:26:17;;;;;;;6.18;2.67;;;;;;;;;;5019538;28;20155;-76
2021/07/19 13:28:44;;;;;;;6.47;2.50;;;;;;;;;;5010242;28;20148;-77
2021/07/19 13:31:10;;;;;;;4.60;2.58;;;;;;;;;;5002501;28;20164;-77
2021/07/19 13:33:43;;;;;;;5.97;2.88;;;;;;;;;;5003954;28;20108;-77
2021/07/19 13:36:13;;;;;;;6.28;2.50;;;;;;;;;;5015397;28;20069;-76
2021/07/19 13:38:40;;;;;;;4.20;2.05;;;;;;;;;;5018316;28;20173;-76
2021/07/19 13:41:07;;;;;;;4.50;2.05;;;;;;;;;;4994450;28;20096;-77
2021/07/19 13:43:38;;;;;;;5.18;2.10;;;;;;;;;;4995113;28;20080;-76
2021/07/19 13:46:04;;;;;;;4.28;2.40;;;;;;;;;;5010990;28;20589;-78
2021/07/19 13:48:33;;;;;;;5.25;2.22;;;;;;;;;;5011865;28;20115;-77
2021/07/19 13:50:59;;;;;;;4.50;2.45;;;;;;;;;;5003588;28;20069;-77
2021/07/19 13:53:25;;;;;;;4.80;2.42;;;;;;;;;;5008675;28;20111;-77
2021/07/19 13:55:59;;;;;;;4.57;2.20;;;;;;;;;;5005696;28;20062;-77
2021/07/19 13:58:29;;;;;;;6.85;2.40;;;;;;;;;;5006172;28;20057;-73
2021/07/19 14:00:57;;;;;;;3.60;2.10;;;;;;;;;;5006650;28;20104;-73
2021/07/19 14:03:23;;;;;;;4.97;2.30;;;;;;;;;;5005827;28;20045;-77
2021/07/19 14:05:50;;;;;;;4.68;2.50;;;;;;;;;;5006015;28;20046;-77
2021/07/19 14:08:18;;;;;;;4.53;2.38;;;;;;;;;;5003980;28;20086;-76
2021/07/19 14:10:44;;;;;;;5.80;2.55;;;;;;;;;;5005220;28;20070;-74
2021/07/19 14:13:11;;;;;;;5.85;2.22;;;;;;;;;;4984366;28;20077;-75
2021/07/19 14:15:39;;;;;;;5.32;2.47;;;;;;;;;;5008194;28;20551;-77
2021/07/19 14:18:05;;;;;;;3.38;1.92;;;;;;;;;;4975992;28;20045;-76
2021/07/19 14:20:33;;;;;;;3.35;2.30;;;;;;;;;;5006595;28;20591;-77
2021/07/19 14:23:00;;;;;;;4.18;1.95;;;;;;;;;;5018381;28;20057;-77
2021/07/19 14:25:26;;;;;;;3.63;1.88;;;;;;;;;;5017025;28;20061;-76
2021/07/19 14:27:57;;;;;;;3.33;2.03;;;;;;;;;;4993118;28;20065;-77
2021/07/19 14:30:24;;;;;;;3.75;1.92;;;;;;;;;;5010698;28;20049;-74
2021/07/19 14:32:52;;;;;;;3.25;1.92;;;;;;;;;;5005725;28;20568;-77
2021/07/19 14:35:19;;;;;;;4.22;2.50;;;;;;;;;;5004231;28;20073;-77
2021/07/19 14:37:46;;;;;;;4.38;1.90;;;;;;;;;;5007787;28;20058;-76
2021/07/19 14:40:13;;;;;;;4.30;1.90;;;;;;;;;;5017208;28;20064;-77
2021/07/19 14:42:40;;;;;;;4.22;2.17;;;;;;;;;;4998014;28;20061;-76
2021/07/19 14:45:06;;;;;;;3.28;1.90;;;;;;;;;;5009351;28;20057;-77
2021/07/19 14:47:33;;;;;;;3.67;2.17;;;;;;;;;;5000480;28;20061;-77